Observations for ROME FIUMICINO, Italy (LIRF)

LIRF 100150Z 34004KT 310V050 CAVOK 12/07 Q1012 NOSIG
LIRF 100120Z 06004KT 360V080 CAVOK 11/07 Q1012 NOSIG
LIRF 100050Z VRB02KT CAVOK 10/06 Q1012 NOSIG
LIRF 100020Z 34006KT 300V090 CAVOK 12/07 Q1012 NOSIG
LIRF 092350Z VRB02KT CAVOK 11/07 Q1012 NOSIG
LIRF 092320Z 32006KT CAVOK 12/07 Q1012 NOSIG
LIRF 092250Z 01005KT CAVOK 12/08 Q1012 NOSIG
LIRF 092220Z 31011KT CAVOK 13/08 Q1011 NOSIG
LIRF 092150Z 32011KT CAVOK 15/08 Q1011 NOSIG
LIRF 092120Z 32010KT 9999 FEW040 14/08 Q1011 NOSIG  
LIRF 092050Z 33010KT 9999 FEW030 15/08 Q1011 NOSIG  
LIRF 092020Z 31019KT 9999 FEW030 16/09 Q1011 WS RWY 34L NOSIG   
LIRF 092020Z 31019KT 9999 FEW030 16/09 Q1011 RMK WS RWY 34L NOSIG
LIRF 091950Z 32017KT 9999 FEW030 16/08 Q1010 WS RWY 34L NOSIG   
LIRF 091950Z 32017KT 9999 FEW030 16/08 Q1010 RMK WS RWY 34L NOSIG
LIRF 091920Z 31019G30KT 9999 SCT030 16/09 Q1010 WS RWY 34L NOSIG
LIRF 091920Z 31019G30KT 9999 SCT030 16/09 Q1010 RMK WS RWY 34L NOSIG
LIRF 091850Z 31020G31KT 9999 SCT030 16/09 Q1010 NOSIG   
LIRF 091820Z 29019G31KT 9999 SCT030 16/08 Q1010 RERA WS RWY 25 NOSIG
LIRF 091820Z 29019G31KT 9999 SCT030 16/08 Q1010 RERA RMK WS RWY 25 NOSIG
LIRF 091750Z 29021G39KT 5000 RA BKN020 15/10 Q1010 WS RWY 25 NOSIG  
LIRF 091750Z 29021G39KT 5000 RA BKN020 15/10 Q1010 RMK WS RWY 25 NOSIG
LIRF 091720Z 32015G27KT 9999 FEW030 17/06 Q1010 TEMPO 32022G32KT
LIRF 091650Z 01004KT 340V050 9999 FEW030 15/07 Q1010 BECMG 32015KT  
LIRF 091620Z VRB03KT 9999 FEW030 15/08 Q1010 BECMG 30019KT  
LIRF 091550Z 32004KT 9999 FEW035 14/09 Q1010 BECMG 30019KT  
LIRF 091520Z 31006KT 9999 FEW030 15/08 Q1010 BECMG 30019KT  
LIRF 091450Z 30009KT 9999 FEW025 17/09 Q1010 BECMG 30019KT  
LIRF 091420Z 29008KT 9999 FEW025 17/10 Q1010 BECMG 30019KT  
LIRF 091350Z 32005KT 280V360 CAVOK 18/11 Q1010 NOSIG
LIRF 091320Z 32005KT 280V350 CAVOK 18/12 Q1010 NOSIG
LIRF 091250Z 28006KT 250V310 9999 FEW020 18/12 Q1010 NOSIG  
LIRF 091220Z 26010KT 9999 SCT020 18/12 Q1010 BECMG 29015KT  
LIRF 091150Z 26011KT 9999 BKN020 17/12 Q1011 BECMG 29015KT  
LIRF 091120Z 25011KT 9999 BKN020 17/12 Q1011 NOSIG  
LIRF 091050Z 26009KT 9999 SCT020 17/12 Q1012 BECMG 29015KT  
LIRF 091020Z 24011KT 9999 SCT020 17/12 Q1012 NOSIG  
LIRF 090950Z 16008KT 140V210 9999 FEW020 15/09 Q1012 NOSIG  
LIRF 090920Z 11007KT 090V160 9999 FEW020 10/05 Q1013 NOSIG  
LIRF 090850Z 09007KT 9999 FEW020 09/04 Q1014 NOSIG  
LIRF 090820Z 10008KT CAVOK 07/04 Q1014 NOSIG
LIRF 090750Z 08007KT CAVOK 06/03 Q1014 NOSIG
LIRF 090720Z 07006KT CAVOK 06/03 Q1015 NOSIG
LIRF 090650Z 09005KT CAVOK 04/02 Q1015 NOSIG
LIRF 090620Z 09007KT CAVOK 04/02 Q1015 NOSIG
LIRF 090550Z 09008KT CAVOK 04/02 Q1016 NOSIG
LIRF 090520Z 09006KT CAVOK 04/02 Q1016 NOSIG
LIRF 090450Z 08007KT CAVOK 05/02 Q1016 NOSIG
LIRF 090420Z 08004KT CAVOK 04/02 Q1017 NOSIG
LIRF 090350Z 08006KT CAVOK 04/02 Q1017 NOSIG
LIRF 090320Z 10005KT CAVOK 03/01 Q1017 NOSIG
LIRF 090250Z 10003KT CAVOK 04/02 Q1017 NOSIG
LIRF 090220Z 07006KT CAVOK 03/01 Q1017 NOSIG
LIRF 090150Z 07004KT CAVOK 03/01 Q1018 NOSIG